sensor_id;sensor_type;location;lat;lon;timestamp;P1;durP1;ratioP1;P2;durP2;ratioP2
46036;SDS011;31769;49.304;8.428;2022-12-16T03:03:54;41.65;;;19.35;;
46036;SDS011;31769;49.304;8.428;2022-12-16T03:07:17;43.97;;;19.35;;
46036;SDS011;31769;49.304;8.428;2022-12-16T03:10:24;35.42;;;19.08;;
46036;SDS011;31769;49.304;8.428;2022-12-16T03:13:30;40.00;;;19.67;;
46036;SDS011;31769;49.304;8.428;2022-12-16T03:16:38;40.33;;;21.13;;
46036;SDS011;31769;49.304;8.428;2022-12-16T03:19:40;35.95;;;18.83;;
46036;SDS011;31769;49.304;8.428;2022-12-16T03:22:46;33.95;;;18.80;;
46036;SDS011;31769;49.304;8.428;2022-12-16T03:25:50;36.65;;;20.55;;
46036;SDS011;31769;49.304;8.428;2022-12-16T03:32:36;38.80;;;24.48;;
46036;SDS011;31769;49.304;8.428;2022-12-16T03:35:48;37.95;;;24.55;;
46036;SDS011;31769;49.304;8.428;2022-12-16T03:38:53;38.92;;;20.83;;
46036;SDS011;31769;49.304;8.428;2022-12-16T03:41:56;40.38;;;24.42;;
46036;SDS011;31769;49.304;8.428;2022-12-16T03:44:57;36.92;;;23.73;;
46036;SDS011;31769;49.304;8.428;2022-12-16T03:47:58;38.10;;;24.98;;
46036;SDS011;31769;49.304;8.428;2022-12-16T03:50:59;39.92;;;24.83;;
46036;SDS011;31769;49.304;8.428;2022-12-16T03:54:00;38.67;;;24.88;;
46036;SDS011;31769;49.304;8.428;2022-12-16T03:57:01;37.00;;;23.67;;
46036;SDS011;31769;49.304;8.428;2022-12-16T04:00:03;38.22;;;23.75;;
46036;SDS011;31769;49.304;8.428;2022-12-16T04:03:12;36.97;;;24.70;;
46036;SDS011;31769;49.304;8.428;2022-12-16T04:06:12;38.85;;;23.55;;
46036;SDS011;31769;49.304;8.428;2022-12-16T04:09:17;38.28;;;23.98;;
46036;SDS011;31769;49.304;8.428;2022-12-16T04:12:19;39.10;;;24.17;;
46036;SDS011;31769;49.304;8.428;2022-12-16T04:15:39;37.55;;;23.85;;
46036;SDS011;31769;49.304;8.428;2022-12-16T04:18:58;36.08;;;23.30;;
46036;SDS011;31769;49.304;8.428;2022-12-16T04:22:19;38.20;;;21.23;;
46036;SDS011;31769;49.304;8.428;2022-12-16T04:25:40;36.92;;;21.33;;
46036;SDS011;31769;49.304;8.428;2022-12-16T04:28:41;38.83;;;21.83;;
46036;SDS011;31769;49.304;8.428;2022-12-16T04:31:41;37.22;;;21.05;;
46036;SDS011;31769;49.304;8.428;2022-12-16T04:34:42;34.47;;;19.42;;
46036;SDS011;31769;49.304;8.428;2022-12-16T04:37:43;36.60;;;19.02;;
46036;SDS011;31769;49.304;8.428;2022-12-16T04:41:02;35.65;;;17.60;;
46036;SDS011;31769;49.304;8.428;2022-12-16T04:44:21;39.42;;;18.13;;
46036;SDS011;31769;49.304;8.428;2022-12-16T04:47:41;36.28;;;18.55;;
46036;SDS011;31769;49.304;8.428;2022-12-16T04:51:00;30.45;;;16.10;;
46036;SDS011;31769;49.304;8.428;2022-12-16T04:54:19;33.88;;;18.63;;
46036;SDS011;31769;49.304;8.428;2022-12-16T04:57:39;30.75;;;17.02;;
46036;SDS011;31769;49.304;8.428;2022-12-16T05:00:58;38.58;;;19.95;;
46036;SDS011;31769;49.304;8.428;2022-12-16T05:04:17;33.50;;;17.27;;
46036;SDS011;31769;49.304;8.428;2022-12-16T05:07:37;33.45;;;18.60;;
46036;SDS011;31769;49.304;8.428;2022-12-16T05:10:56;36.50;;;17.95;;
46036;SDS011;31769;49.304;8.428;2022-12-16T05:14:16;33.47;;;17.83;;
46036;SDS011;31769;49.304;8.428;2022-12-16T05:17:35;34.53;;;18.95;;
46036;SDS011;31769;49.304;8.428;2022-12-16T05:20:56;37.38;;;19.02;;
46036;SDS011;31769;49.304;8.428;2022-12-16T05:24:16;35.85;;;18.35;;
46036;SDS011;31769;49.304;8.428;2022-12-16T05:27:35;33.80;;;18.08;;
46036;SDS011;31769;49.304;8.428;2022-12-16T05:30:55;33.65;;;18.50;;
46036;SDS011;31769;49.304;8.428;2022-12-16T05:34:14;35.85;;;17.92;;
46036;SDS011;31769;49.304;8.428;2022-12-16T05:37:34;37.63;;;19.05;;
46036;SDS011;31769;49.304;8.428;2022-12-16T05:40:53;37.95;;;17.55;;
46036;SDS011;31769;49.304;8.428;2022-12-16T05:44:12;32.65;;;14.93;;
46036;SDS011;31769;49.304;8.428;2022-12-16T05:47:32;35.05;;;17.60;;
46036;SDS011;31769;49.304;8.428;2022-12-16T05:50:52;32.53;;;16.92;;
46036;SDS011;31769;49.304;8.428;2022-12-16T05:54:11;38.22;;;18.75;;
46036;SDS011;31769;49.304;8.428;2022-12-16T05:57:31;31.02;;;16.02;;
46036;SDS011;31769;49.304;8.428;2022-12-16T06:00:50;33.47;;;15.85;;
46036;SDS011;31769;49.304;8.428;2022-12-16T06:04:20;29.55;;;16.38;;
46036;SDS011;31769;49.304;8.428;2022-12-16T06:07:39;35.80;;;17.17;;
46036;SDS011;31769;49.304;8.428;2022-12-16T06:10:59;33.70;;;17.17;;
46036;SDS011;31769;49.304;8.428;2022-12-16T06:14:18;34.80;;;17.45;;
46036;SDS011;31769;49.304;8.428;2022-12-16T06:17:41;34.30;;;17.92;;
46036;SDS011;31769;49.304;8.428;2022-12-16T06:21:10;37.38;;;18.75;;
46036;SDS011;31769;49.304;8.428;2022-12-16T06:24:29;33.67;;;17.73;;
46036;SDS011;31769;49.304;8.428;2022-12-16T06:27:50;33.78;;;17.35;;
46036;SDS011;31769;49.304;8.428;2022-12-16T06:46:30;33.53;;;16.10;;
46036;SDS011;31769;49.304;8.428;2022-12-16T06:49:49;29.10;;;15.60;;
46036;SDS011;31769;49.304;8.428;2022-12-16T06:53:08;33.55;;;17.48;;
46036;SDS011;31769;49.304;8.428;2022-12-16T06:56:28;29.83;;;14.57;;
46036;SDS011;31769;49.304;8.428;2022-12-16T06:59:47;32.80;;;16.77;;
46036;SDS011;31769;49.304;8.428;2022-12-16T07:03:06;30.20;;;16.20;;
46036;SDS011;31769;49.304;8.428;2022-12-16T07:06:26;32.03;;;17.27;;
46036;SDS011;31769;49.304;8.428;2022-12-16T07:09:45;30.02;;;15.60;;
46036;SDS011;31769;49.304;8.428;2022-12-16T07:13:04;29.13;;;15.00;;
46036;SDS011;31769;49.304;8.428;2022-12-16T07:16:23;31.85;;;15.63;;
46036;SDS011;31769;49.304;8.428;2022-12-16T07:19:43;32.33;;;14.93;;
46036;SDS011;31769;49.304;8.428;2022-12-16T07:23:02;31.27;;;15.30;;
46036;SDS011;31769;49.304;8.428;2022-12-16T07:26:21;30.95;;;16.17;;
46036;SDS011;31769;49.304;8.428;2022-12-16T07:29:44;35.13;;;16.42;;
46036;SDS011;31769;49.304;8.428;2022-12-16T07:33:02;28.80;;;14.25;;
46036;SDS011;31769;49.304;8.428;2022-12-16T07:36:22;32.22;;;16.50;;
46036;SDS011;31769;49.304;8.428;2022-12-16T07:39:41;29.52;;;15.13;;
46036;SDS011;31769;49.304;8.428;2022-12-16T07:43:01;33.90;;;18.13;;
46036;SDS011;31769;49.304;8.428;2022-12-16T07:46:20;34.45;;;18.77;;
46036;SDS011;31769;49.304;8.428;2022-12-16T07:49:39;33.17;;;16.90;;
46036;SDS011;31769;49.304;8.428;2022-12-16T07:52:59;34.40;;;16.08;;
46036;SDS011;31769;49.304;8.428;2022-12-16T07:56:19;32.08;;;14.27;;
46036;SDS011;31769;49.304;8.428;2022-12-16T07:59:38;31.10;;;16.00;;
46036;SDS011;31769;49.304;8.428;2022-12-16T08:02:57;29.98;;;14.48;;
46036;SDS011;31769;49.304;8.428;2022-12-16T08:06:17;28.35;;;14.77;;
46036;SDS011;31769;49.304;8.428;2022-12-16T08:09:36;31.27;;;17.05;;
46036;SDS011;31769;49.304;8.428;2022-12-16T08:12:59;28.92;;;14.98;;
46036;SDS011;31769;49.304;8.428;2022-12-16T08:16:19;31.00;;;16.85;;
46036;SDS011;31769;49.304;8.428;2022-12-16T08:19:38;32.72;;;16.80;;
46036;SDS011;31769;49.304;8.428;2022-12-16T08:22:57;29.13;;;15.63;;
46036;SDS011;31769;49.304;8.428;2022-12-16T08:26:17;28.40;;;15.85;;
46036;SDS011;31769;49.304;8.428;2022-12-16T08:29:36;28.05;;;15.20;;
46036;SDS011;31769;49.304;8.428;2022-12-16T08:32:55;26.48;;;15.75;;
46036;SDS011;31769;49.304;8.428;2022-12-16T08:36:15;30.88;;;16.20;;
46036;SDS011;31769;49.304;8.428;2022-12-16T08:39:34;29.33;;;17.23;;
46036;SDS011;31769;49.304;8.428;2022-12-16T08:42:56;29.70;;;17.33;;
46036;SDS011;31769;49.304;8.428;2022-12-16T08:46:15;28.48;;;16.63;;
46036;SDS011;31769;49.304;8.428;2022-12-16T08:49:35;29.20;;;17.38;;
46036;SDS011;31769;49.304;8.428;2022-12-16T08:52:54;32.35;;;16.48;;
46036;SDS011;31769;49.304;8.428;2022-12-16T08:56:14;30.95;;;19.00;;
46036;SDS011;31769;49.304;8.428;2022-12-16T09:02:03;30.30;;;17.05;;
46036;SDS011;31769;49.304;8.428;2022-12-16T09:05:23;28.17;;;15.68;;
46036;SDS011;31769;49.304;8.428;2022-12-16T09:08:42;26.85;;;16.20;;
46036;SDS011;31769;49.304;8.428;2022-12-16T09:12:02;29.92;;;16.63;;
46036;SDS011;31769;49.304;8.428;2022-12-16T09:15:21;29.95;;;16.92;;
46036;SDS011;31769;49.304;8.428;2022-12-16T09:18:40;31.08;;;19.40;;
46036;SDS011;31769;49.304;8.428;2022-12-16T09:22:00;31.60;;;18.63;;
46036;SDS011;31769;49.304;8.428;2022-12-16T09:25:19;32.42;;;18.05;;
46036;SDS011;31769;49.304;8.428;2022-12-16T09:28:38;30.05;;;17.48;;
46036;SDS011;31769;49.304;8.428;2022-12-16T09:31:58;32.78;;;18.38;;
46036;SDS011;31769;49.304;8.428;2022-12-16T09:35:17;29.17;;;17.90;;
46036;SDS011;31769;49.304;8.428;2022-12-16T09:38:36;28.67;;;17.88;;
46036;SDS011;31769;49.304;8.428;2022-12-16T09:45:45;28.50;;;17.40;;
46036;SDS011;31769;49.304;8.428;2022-12-16T09:53:10;30.20;;;16.92;;
46036;SDS011;31769;49.304;8.428;2022-12-16T09:56:32;31.10;;;18.45;;
46036;SDS011;31769;49.304;8.428;2022-12-16T09:59:54;30.17;;;17.52;;
46036;SDS011;31769;49.304;8.428;2022-12-16T10:03:23;31.02;;;17.73;;
46036;SDS011;31769;49.304;8.428;2022-12-16T10:06:51;29.30;;;17.65;;
46036;SDS011;31769;49.304;8.428;2022-12-16T10:10:22;27.75;;;17.38;;
46036;SDS011;31769;49.304;8.428;2022-12-16T10:17:13;26.08;;;17.48;;
46036;SDS011;31769;49.304;8.428;2022-12-16T10:20:39;28.90;;;18.45;;
46036;SDS011;31769;49.304;8.428;2022-12-16T10:24:25;27.58;;;17.67;;
46036;SDS011;31769;49.304;8.428;2022-12-16T10:27:46;25.92;;;17.17;;
46036;SDS011;31769;49.304;8.428;2022-12-16T10:31:14;30.33;;;18.38;;
46036;SDS011;31769;49.304;8.428;2022-12-16T10:34:34;26.88;;;17.20;;
46036;SDS011;31769;49.304;8.428;2022-12-16T10:37:56;25.85;;;18.20;;
46036;SDS011;31769;49.304;8.428;2022-12-16T10:41:15;23.73;;;17.48;;
46036;SDS011;31769;49.304;8.428;2022-12-16T10:48:12;24.70;;;17.27;;
46036;SDS011;31769;49.304;8.428;2022-12-16T10:51:34;25.20;;;17.75;;
46036;SDS011;31769;49.304;8.428;2022-12-16T11:02:26;25.40;;;17.05;;
46036;SDS011;31769;49.304;8.428;2022-12-16T11:05:46;26.85;;;18.17;;
46036;SDS011;31769;49.304;8.428;2022-12-16T11:12:43;25.70;;;16.70;;
46036;SDS011;31769;49.304;8.428;2022-12-16T11:16:06;25.60;;;16.83;;
46036;SDS011;31769;49.304;8.428;2022-12-16T11:19:27;21.65;;;15.55;;
46036;SDS011;31769;49.304;8.428;2022-12-16T11:22:47;20.95;;;15.18;;
46036;SDS011;31769;49.304;8.428;2022-12-16T11:26:24;18.40;;;14.70;;
46036;SDS011;31769;49.304;8.428;2022-12-16T11:33:20;20.85;;;14.80;;
46036;SDS011;31769;49.304;8.428;2022-12-16T11:36:42;22.00;;;14.90;;
46036;SDS011;31769;49.304;8.428;2022-12-16T11:40:03;19.88;;;14.55;;
46036;SDS011;31769;49.304;8.428;2022-12-16T11:43:24;21.40;;;15.43;;
46036;SDS011;31769;49.304;8.428;2022-12-16T11:46:49;19.20;;;15.10;;
46036;SDS011;31769;49.304;8.428;2022-12-16T11:50:20;22.77;;;15.80;;
46036;SDS011;31769;49.304;8.428;2022-12-16T11:57:51;19.52;;;15.50;;
46036;SDS011;31769;49.304;8.428;2022-12-16T12:01:39;18.25;;;14.75;;
46036;SDS011;31769;49.304;8.428;2022-12-16T12:05:14;18.67;;;15.65;;
46036;SDS011;31769;49.304;8.428;2022-12-16T12:15:56;20.17;;;14.57;;
46036;SDS011;31769;49.304;8.428;2022-12-16T12:19:35;18.90;;;14.60;;
46036;SDS011;31769;49.304;8.428;2022-12-16T12:23:09;21.05;;;14.82;;
46036;SDS011;31769;49.304;8.428;2022-12-16T12:26:32;16.23;;;12.93;;
46036;SDS011;31769;49.304;8.428;2022-12-16T12:33:32;15.82;;;11.55;;
46036;SDS011;31769;49.304;8.428;2022-12-16T12:37:41;15.07;;;11.38;;
46036;SDS011;31769;49.304;8.428;2022-12-16T12:40:58;17.60;;;12.73;;
46036;SDS011;31769;49.304;8.428;2022-12-16T12:44:50;20.60;;;13.63;;
46036;SDS011;31769;49.304;8.428;2022-12-16T12:52:24;21.80;;;15.10;;
46036;SDS011;31769;49.304;8.428;2022-12-16T12:59:24;20.30;;;14.60;;
46036;SDS011;31769;49.304;8.428;2022-12-16T13:06:44;22.75;;;14.95;;
46036;SDS011;31769;49.304;8.428;2022-12-16T13:13:38;23.05;;;15.20;;
46036;SDS011;31769;49.304;8.428;2022-12-16T13:16:58;23.13;;;16.75;;
46036;SDS011;31769;49.304;8.428;2022-12-16T13:23:53;23.25;;;17.13;;
46036;SDS011;31769;49.304;8.428;2022-12-16T13:27:13;21.75;;;16.70;;
46036;SDS011;31769;49.304;8.428;2022-12-16T13:30:34;23.40;;;17.48;;
46036;SDS011;31769;49.304;8.428;2022-12-16T13:33:55;23.10;;;16.92;;
46036;SDS011;31769;49.304;8.428;2022-12-16T13:37:22;21.65;;;16.77;;
46036;SDS011;31769;49.304;8.428;2022-12-16T13:44:52;24.70;;;17.20;;
46036;SDS011;31769;49.304;8.428;2022-12-16T13:48:02;22.08;;;17.10;;
46036;SDS011;31769;49.304;8.428;2022-12-16T13:54:58;20.42;;;14.18;;
46036;SDS011;31769;49.304;8.428;2022-12-16T13:58:34;17.20;;;13.25;;
46036;SDS011;31769;49.304;8.428;2022-12-16T14:01:55;14.27;;;11.50;;
46036;SDS011;31769;49.304;8.428;2022-12-16T14:05:21;15.48;;;11.20;;
46036;SDS011;31769;49.304;8.428;2022-12-16T14:08:53;13.02;;;10.88;;
46036;SDS011;31769;49.304;8.428;2022-12-16T14:12:36;14.15;;;10.95;;
46036;SDS011;31769;49.304;8.428;2022-12-16T14:16:05;13.43;;;10.10;;
46036;SDS011;31769;49.304;8.428;2022-12-16T14:19:28;14.38;;;11.10;;
46036;SDS011;31769;49.304;8.428;2022-12-16T14:23:33;13.65;;;10.52;;
46036;SDS011;31769;49.304;8.428;2022-12-16T14:27:04;12.95;;;9.52;;
46036;SDS011;31769;49.304;8.428;2022-12-16T14:30:30;13.88;;;9.82;;
46036;SDS011;31769;49.304;8.428;2022-12-16T14:33:53;13.15;;;10.18;;
46036;SDS011;31769;49.304;8.428;2022-12-16T14:40:32;12.85;;;10.52;;
46036;SDS011;31769;49.304;8.428;2022-12-16T14:43:51;14.48;;;11.07;;
46036;SDS011;31769;49.304;8.428;2022-12-16T14:47:14;15.20;;;11.52;;
46036;SDS011;31769;49.304;8.428;2022-12-16T14:50:35;13.80;;;10.38;;
46036;SDS011;31769;49.304;8.428;2022-12-16T14:54:07;11.88;;;8.98;;
46036;SDS011;31769;49.304;8.428;2022-12-16T14:57:34;15.00;;;12.00;;
46036;SDS011;31769;49.304;8.428;2022-12-16T15:00:54;14.75;;;11.07;;
46036;SDS011;31769;49.304;8.428;2022-12-16T15:04:28;17.13;;;11.80;;
46036;SDS011;31769;49.304;8.428;2022-12-16T15:07:47;17.90;;;12.70;;
46036;SDS011;31769;49.304;8.428;2022-12-16T15:11:07;19.27;;;13.23;;
46036;SDS011;31769;49.304;8.428;2022-12-16T15:14:29;19.65;;;14.13;;
46036;SDS011;31769;49.304;8.428;2022-12-16T15:17:52;18.90;;;13.88;;
46036;SDS011;31769;49.304;8.428;2022-12-16T15:21:13;22.80;;;15.77;;
46036;SDS011;31769;49.304;8.428;2022-12-16T15:24:34;20.60;;;15.00;;
46036;SDS011;31769;49.304;8.428;2022-12-16T15:27:55;20.92;;;17.08;;
46036;SDS011;31769;49.304;8.428;2022-12-16T15:31:25;23.73;;;17.45;;
46036;SDS011;31769;49.304;8.428;2022-12-16T15:34:48;26.45;;;19.30;;
46036;SDS011;31769;49.304;8.428;2022-12-16T15:38:11;30.33;;;19.33;;
46036;SDS011;31769;49.304;8.428;2022-12-16T15:41:37;27.63;;;19.05;;
46036;SDS011;31769;49.304;8.428;2022-12-16T15:44:56;30.35;;;20.73;;
46036;SDS011;31769;49.304;8.428;2022-12-16T15:48:28;27.85;;;19.33;;
46036;SDS011;31769;49.304;8.428;2022-12-16T15:51:50;28.40;;;20.10;;
46036;SDS011;31769;49.304;8.428;2022-12-16T15:55:29;35.60;;;23.30;;
46036;SDS011;31769;49.304;8.428;2022-12-16T15:58:53;43.08;;;25.70;;
46036;SDS011;31769;49.304;8.428;2022-12-16T16:02:31;31.60;;;20.35;;
46036;SDS011;31769;49.304;8.428;2022-12-16T16:05:51;38.47;;;22.83;;
46036;SDS011;31769;49.304;8.428;2022-12-16T16:09:21;35.03;;;20.20;;
46036;SDS011;31769;49.304;8.428;2022-12-16T16:12:44;31.33;;;19.33;;
46036;SDS011;31769;49.304;8.428;2022-12-16T16:16:07;36.85;;;21.55;;
46036;SDS011;31769;49.304;8.428;2022-12-16T16:19:28;43.25;;;24.08;;
46036;SDS011;31769;49.304;8.428;2022-12-16T16:22:47;34.72;;;21.23;;
46036;SDS011;31769;49.304;8.428;2022-12-16T16:26:10;37.20;;;21.88;;
46036;SDS011;31769;49.304;8.428;2022-12-16T16:29:32;34.47;;;20.38;;
46036;SDS011;31769;49.304;8.428;2022-12-16T16:32:51;33.95;;;21.20;;
46036;SDS011;31769;49.304;8.428;2022-12-16T16:36:14;35.25;;;20.25;;
46036;SDS011;31769;49.304;8.428;2022-12-16T16:39:33;36.72;;;21.25;;
46036;SDS011;31769;49.304;8.428;2022-12-16T16:42:52;35.85;;;21.88;;
46036;SDS011;31769;49.304;8.428;2022-12-16T16:50:00;30.08;;;19.63;;
46036;SDS011;31769;49.304;8.428;2022-12-16T16:53:19;30.20;;;20.50;;
46036;SDS011;31769;49.304;8.428;2022-12-16T16:56:39;30.77;;;19.65;;
46036;SDS011;31769;49.304;8.428;2022-12-16T16:59:58;35.20;;;19.67;;
46036;SDS011;31769;49.304;8.428;2022-12-16T17:03:17;29.75;;;19.10;;
46036;SDS011;31769;49.304;8.428;2022-12-16T17:06:37;28.60;;;19.55;;
46036;SDS011;31769;49.304;8.428;2022-12-16T17:09:56;26.02;;;18.60;;
46036;SDS011;31769;49.304;8.428;2022-12-16T17:13:15;24.55;;;17.63;;
46036;SDS011;31769;49.304;8.428;2022-12-16T17:16:35;31.05;;;20.13;;
46036;SDS011;31769;49.304;8.428;2022-12-16T17:19:54;32.30;;;20.42;;
46036;SDS011;31769;49.304;8.428;2022-12-16T17:23:13;31.73;;;23.30;;
46036;SDS011;31769;49.304;8.428;2022-12-16T17:26:32;34.55;;;22.52;;
46036;SDS011;31769;49.304;8.428;2022-12-16T17:29:51;29.98;;;20.52;;
46036;SDS011;31769;49.304;8.428;2022-12-16T17:33:10;29.55;;;20.90;;
46036;SDS011;31769;49.304;8.428;2022-12-16T17:36:29;34.00;;;22.55;;
46036;SDS011;31769;49.304;8.428;2022-12-16T17:39:49;33.28;;;23.30;;
46036;SDS011;31769;49.304;8.428;2022-12-16T17:43:08;33.50;;;22.20;;
46036;SDS011;31769;49.304;8.428;2022-12-16T17:46:30;37.55;;;24.48;;
46036;SDS011;31769;49.304;8.428;2022-12-16T17:49:50;37.17;;;23.80;;
46036;SDS011;31769;49.304;8.428;2022-12-16T17:53:09;35.17;;;23.23;;
46036;SDS011;31769;49.304;8.428;2022-12-16T17:56:28;37.92;;;23.90;;
46036;SDS011;31769;49.304;8.428;2022-12-16T17:59:47;33.78;;;22.73;;
46036;SDS011;31769;49.304;8.428;2022-12-16T18:03:13;34.70;;;23.40;;
46036;SDS011;31769;49.304;8.428;2022-12-16T18:06:32;38.78;;;23.58;;
46036;SDS011;31769;49.304;8.428;2022-12-16T18:09:53;35.90;;;25.67;;
46036;SDS011;31769;49.304;8.428;2022-12-16T18:13:12;34.88;;;23.92;;
46036;SDS011;31769;49.304;8.428;2022-12-16T18:16:32;39.50;;;24.77;;
46036;SDS011;31769;49.304;8.428;2022-12-16T18:19:52;39.38;;;25.08;;
46036;SDS011;31769;49.304;8.428;2022-12-16T18:23:11;39.22;;;25.25;;
46036;SDS011;31769;49.304;8.428;2022-12-16T18:26:31;42.65;;;28.27;;
46036;SDS011;31769;49.304;8.428;2022-12-16T18:29:50;42.70;;;28.45;;
46036;SDS011;31769;49.304;8.428;2022-12-16T18:33:09;45.53;;;30.40;;
46036;SDS011;31769;49.304;8.428;2022-12-16T18:36:28;45.42;;;30.65;;
46036;SDS011;31769;49.304;8.428;2022-12-16T18:39:48;40.17;;;28.95;;
46036;SDS011;31769;49.304;8.428;2022-12-16T18:43:07;41.47;;;28.20;;
46036;SDS011;31769;49.304;8.428;2022-12-16T18:46:40;40.65;;;27.95;;
46036;SDS011;31769;49.304;8.428;2022-12-16T18:49:59;37.33;;;26.33;;
46036;SDS011;31769;49.304;8.428;2022-12-16T18:53:19;40.42;;;27.77;;
46036;SDS011;31769;49.304;8.428;2022-12-16T18:56:38;42.58;;;28.42;;
46036;SDS011;31769;49.304;8.428;2022-12-16T18:59:57;39.53;;;26.45;;
46036;SDS011;31769;49.304;8.428;2022-12-16T19:03:17;37.33;;;25.27;;
46036;SDS011;31769;49.304;8.428;2022-12-16T19:06:37;39.63;;;26.52;;
46036;SDS011;31769;49.304;8.428;2022-12-16T19:09:56;40.60;;;27.50;;
46036;SDS011;31769;49.304;8.428;2022-12-16T19:13:15;46.05;;;29.58;;
46036;SDS011;31769;49.304;8.428;2022-12-16T19:16:35;45.22;;;28.70;;
46036;SDS011;31769;49.304;8.428;2022-12-16T19:19:54;45.17;;;29.80;;
46036;SDS011;31769;49.304;8.428;2022-12-16T19:23:14;41.92;;;29.35;;
46036;SDS011;31769;49.304;8.428;2022-12-16T19:26:33;45.30;;;31.15;;
46036;SDS011;31769;49.304;8.428;2022-12-16T19:29:52;44.58;;;29.95;;
46036;SDS011;31769;49.304;8.428;2022-12-16T19:33:12;44.13;;;30.30;;
46036;SDS011;31769;49.304;8.428;2022-12-16T19:36:31;45.13;;;29.92;;
46036;SDS011;31769;49.304;8.428;2022-12-16T19:39:50;45.58;;;30.10;;
46036;SDS011;31769;49.304;8.428;2022-12-16T19:43:10;45.97;;;31.17;;
46036;SDS011;31769;49.304;8.428;2022-12-16T19:46:29;51.38;;;32.88;;
46036;SDS011;31769;49.304;8.428;2022-12-16T19:49:48;54.45;;;33.85;;
46036;SDS011;31769;49.304;8.428;2022-12-16T19:53:08;48.67;;;33.15;;
46036;SDS011;31769;49.304;8.428;2022-12-16T19:56:27;51.03;;;34.15;;
46036;SDS011;31769;49.304;8.428;2022-12-16T19:59:46;50.28;;;34.78;;
46036;SDS011;31769;49.304;8.428;2022-12-16T20:03:14;50.90;;;33.90;;
46036;SDS011;31769;49.304;8.428;2022-12-16T20:06:35;47.35;;;31.52;;
46036;SDS011;31769;49.304;8.428;2022-12-16T20:09:55;47.88;;;30.92;;
46036;SDS011;31769;49.304;8.428;2022-12-16T20:13:14;50.38;;;29.42;;
46036;SDS011;31769;49.304;8.428;2022-12-16T20:16:33;46.20;;;33.10;;
46036;SDS011;31769;49.304;8.428;2022-12-16T20:19:53;49.35;;;28.80;;
46036;SDS011;31769;49.304;8.428;2022-12-16T20:23:13;43.28;;;22.83;;
46036;SDS011;31769;49.304;8.428;2022-12-16T20:26:32;43.58;;;24.45;;
46036;SDS011;31769;49.304;8.428;2022-12-16T20:30:11;44.92;;;24.88;;
46036;SDS011;31769;49.304;8.428;2022-12-16T20:33:30;40.45;;;26.13;;
46036;SDS011;31769;49.304;8.428;2022-12-16T20:36:49;45.50;;;24.08;;
46036;SDS011;31769;49.304;8.428;2022-12-16T20:40:09;42.85;;;24.45;;
46036;SDS011;31769;49.304;8.428;2022-12-16T20:43:28;45.72;;;25.42;;
46036;SDS011;31769;49.304;8.428;2022-12-16T20:46:47;46.40;;;25.15;;
46036;SDS011;31769;49.304;8.428;2022-12-16T20:50:06;44.80;;;25.40;;
46036;SDS011;31769;49.304;8.428;2022-12-16T20:53:25;52.28;;;29.77;;
46036;SDS011;31769;49.304;8.428;2022-12-16T20:56:45;44.38;;;26.15;;
46036;SDS011;31769;49.304;8.428;2022-12-16T21:00:04;48.60;;;25.88;;
46036;SDS011;31769;49.304;8.428;2022-12-16T21:03:24;46.55;;;26.08;;
46036;SDS011;31769;49.304;8.428;2022-12-16T21:06:43;52.45;;;28.30;;
46036;SDS011;31769;49.304;8.428;2022-12-16T21:10:03;48.72;;;26.75;;
46036;SDS011;31769;49.304;8.428;2022-12-16T21:13:23;53.63;;;29.23;;
46036;SDS011;31769;49.304;8.428;2022-12-16T21:16:42;49.80;;;28.90;;
46036;SDS011;31769;49.304;8.428;2022-12-16T21:20:01;55.95;;;30.13;;
46036;SDS011;31769;49.304;8.428;2022-12-16T21:23:21;50.92;;;29.52;;
46036;SDS011;31769;49.304;8.428;2022-12-16T21:26:41;55.22;;;28.67;;
46036;SDS011;31769;49.304;8.428;2022-12-16T21:30:00;48.22;;;27.55;;
46036;SDS011;31769;49.304;8.428;2022-12-16T21:33:19;50.03;;;27.83;;
46036;SDS011;31769;49.304;8.428;2022-12-16T21:36:38;48.47;;;29.15;;
46036;SDS011;31769;49.304;8.428;2022-12-16T21:39:59;51.78;;;30.13;;
46036;SDS011;31769;49.304;8.428;2022-12-16T21:43:18;50.45;;;27.27;;
46036;SDS011;31769;49.304;8.428;2022-12-16T21:46:37;50.85;;;28.70;;
46036;SDS011;31769;49.304;8.428;2022-12-16T21:49:57;58.80;;;30.50;;
46036;SDS011;31769;49.304;8.428;2022-12-16T21:53:16;53.17;;;31.58;;
46036;SDS011;31769;49.304;8.428;2022-12-16T21:56:36;56.20;;;30.38;;
46036;SDS011;31769;49.304;8.428;2022-12-16T21:59:56;57.08;;;30.30;;
46036;SDS011;31769;49.304;8.428;2022-12-16T22:03:15;49.63;;;26.50;;
46036;SDS011;31769;49.304;8.428;2022-12-16T22:06:34;54.47;;;27.67;;
46036;SDS011;31769;49.304;8.428;2022-12-16T22:09:53;50.47;;;27.15;;
46036;SDS011;31769;49.304;8.428;2022-12-16T22:13:13;49.40;;;27.13;;
46036;SDS011;31769;49.304;8.428;2022-12-16T22:16:32;43.90;;;24.05;;
46036;SDS011;31769;49.304;8.428;2022-12-16T22:19:52;40.95;;;23.27;;
46036;SDS011;31769;49.304;8.428;2022-12-16T22:23:11;47.22;;;24.77;;
46036;SDS011;31769;49.304;8.428;2022-12-16T22:26:31;41.10;;;22.52;;
46036;SDS011;31769;49.304;8.428;2022-12-16T22:29:50;41.17;;;22.77;;
46036;SDS011;31769;49.304;8.428;2022-12-16T22:33:10;45.72;;;24.98;;
46036;SDS011;31769;49.304;8.428;2022-12-16T22:36:30;53.30;;;26.92;;
46036;SDS011;31769;49.304;8.428;2022-12-16T22:39:50;54.33;;;27.85;;
46036;SDS011;31769;49.304;8.428;2022-12-16T22:43:09;51.47;;;26.85;;
46036;SDS011;31769;49.304;8.428;2022-12-16T22:46:29;61.53;;;29.50;;
46036;SDS011;31769;49.304;8.428;2022-12-16T22:49:48;62.03;;;30.25;;
46036;SDS011;31769;49.304;8.428;2022-12-16T22:53:08;63.67;;;29.88;;
46036;SDS011;31769;49.304;8.428;2022-12-16T22:56:31;66.28;;;30.80;;
46036;SDS011;31769;49.304;8.428;2022-12-16T22:59:50;71.05;;;35.30;;
46036;SDS011;31769;49.304;8.428;2022-12-16T23:03:16;66.60;;;32.60;;
46036;SDS011;31769;49.304;8.428;2022-12-16T23:06:35;59.50;;;30.20;;
46036;SDS011;31769;49.304;8.428;2022-12-16T23:09:55;64.55;;;30.80;;
46036;SDS011;31769;49.304;8.428;2022-12-16T23:13:14;60.10;;;29.00;;
46036;SDS011;31769;49.304;8.428;2022-12-16T23:16:33;56.80;;;29.08;;
46036;SDS011;31769;49.304;8.428;2022-12-16T23:19:52;63.13;;;29.48;;
46036;SDS011;31769;49.304;8.428;2022-12-16T23:23:11;77.85;;;35.03;;
46036;SDS011;31769;49.304;8.428;2022-12-16T23:26:31;56.55;;;28.58;;
46036;SDS011;31769;49.304;8.428;2022-12-16T23:29:50;61.17;;;29.83;;
46036;SDS011;31769;49.304;8.428;2022-12-16T23:33:09;56.45;;;26.83;;
46036;SDS011;31769;49.304;8.428;2022-12-16T23:36:28;53.05;;;26.77;;
46036;SDS011;31769;49.304;8.428;2022-12-16T23:39:48;58.35;;;28.30;;
46036;SDS011;31769;49.304;8.428;2022-12-16T23:43:07;56.38;;;27.65;;
46036;SDS011;31769;49.304;8.428;2022-12-16T23:46:26;59.13;;;28.30;;
46036;SDS011;31769;49.304;8.428;2022-12-16T23:49:46;56.25;;;29.23;;
46036;SDS011;31769;49.304;8.428;2022-12-16T23:53:07;50.58;;;26.27;;
46036;SDS011;31769;49.304;8.428;2022-12-16T23:56:28;49.22;;;27.58;;
